Latacunga, Ecuador

2:45 PM ECT on August 20, 2014 (GMT -0500)
Cotopaxi International | Change Station
CLOSE
Current Station
Airport
Location: Latacunga,
Elevation: 9137 ft
Nearby Weather Stations

Elev 9137 ft 0.91 °S, 78.62 °W | Updated 45 minutes ago

Mostly Cloudy
Mostly Cloudy
61 °F
Feels Like 61 °F
N
16
Wind Variable Wind from South

Today
High -- | Low -- °F
--% Chance of Precip.
Yesterday
High -- | Low -- °F
Precip. -- in
6:15 AM 6:20 PM
Waning Crescent, 19% visible
Pressure 30.45 in
Visibility 6.2 miles
Clouds Scattered Clouds 3300 ft
Mostly Cloudy 4000 ft
Mostly Cloudy 10000 ft
Dew Point 39 °F
Humidity 45%
Rainfall 0.00 in
Snow Depth Not available.
UV 8 out of 12
Pollen Not available.
Air Quality Not available.
Flu Activity Not available.
METAR SELT 201900Z 19014KT 9999 SCT033 BKN040 BKN100 16/04 Q1031

More Conditions Fewer Conditions

Pressure 30.45 in
Visibility 6.2 miles
Clouds Scattered Clouds 3300 ft
Mostly Cloudy 4000 ft
Mostly Cloudy 10000 ft
Dew Point 39 °F
Humidity 45%
Rainfall 0.00 in
Snow Depth Not available.
UV 8 out of 12
Pollen Not available.
Air Quality Not available.
Flu Activity Not available.
METAR SELT 201900Z 19014KT 9999 SCT033 BKN040 BKN100 16/04 Q1031

More Conditions Fewer Conditions

10-Day Weather Forecast

Almanac

Astronomy

Aug. 20, 2014 Rise Set
Actual Time 6:15 AM ECT 6:20 PM ECT
Civil Twilight 5:54 AM ECT 6:41 PM ECT
Nautical Twilight 5:29 AM ECT 7:06 PM ECT
Astronomical Twilight 5:04 AM ECT 7:30 PM ECT
Moon 2:18 AM ECT 2:39 PM ECT
Length of Visible Light 12h 47m
Length of Day
12h 05m
Tomorrow will be 0m 3s longer.
Waning Crescent, 19% of the Moon is Illuminated
Today
Waning Crescent
Aug 25
New
Sep 2
First Quarter
Sep 8
Full
Sep 15
Last Quarter

Today's Extremes

Country Highs Country Lows

Community

WunderPhotos

Upload Photos

1,745,727 photos uploaded!

WunderBlogs® & News

By Dr. Jeff Masters
Director of Meteorology, Weather Underground
By Kari Strenfel
Meteorologist, Weather Underground
By Christopher C. Burt
Weather Historian, Weather Underground
August 20, 2014
August 20, 2014
August 20, 2014

Nearby

Snow Depth

Not available.

Earthquake Activity

City Distance Mag. Time & Date
No recent earthquake activity has been reported nearby.
Minimum magnitude displayed is 2.5.

Coastal Water Temperatures

Place Temperature
No Stations Reporting

Nearby Weather Stations